Time;durP1;ratioP1;P1;durP2;ratioP2;P2;SDS_P1;SDS_P2;PMS_P1;PMS_P2;Temp;Humidity;BMP_temperature;BMP_pressure;BME280_temperature;BME280_humidity;BME280_pressure;Samples;Min_cycle;Max_cycle;Signal;HPM_P1;HPM_P2
2023/03/13 00:02:05;;;;;;;14.15;8.18;;;14.00;99.90;;;;;;4933387;28;20047;-72
2023/03/13 00:04:31;;;;;;;18.73;8.93;;;14.00;99.90;;;;;;4935924;29;20036;-71
2023/03/13 00:06:57;;;;;;;11.38;8.60;;;14.00;99.90;;;;;;4936521;29;20042;-72
2023/03/13 00:09:23;;;;;;;14.85;8.52;;;14.00;99.90;;;;;;4931746;29;20051;-72
2023/03/13 00:11:49;;;;;;;14.10;8.55;;;14.00;99.90;;;;;;4944095;29;20038;-72
2023/03/13 00:14:15;;;;;;;15.35;8.98;;;14.00;99.90;;;;;;4940952;29;20043;-71
2023/03/13 00:16:41;;;;;;;16.30;8.80;;;13.90;99.90;;;;;;4940600;28;20032;-71
2023/03/13 00:19:08;;;;;;;15.23;8.75;;;13.90;99.90;;;;;;4940806;29;20031;-71
2023/03/13 00:21:36;;;;;;;18.65;9.57;;;14.00;99.90;;;;;;4939182;29;20063;-71
2023/03/13 00:24:02;;;;;;;19.85;9.90;;;13.90;99.90;;;;;;4933377;29;20055;-72
2023/03/13 00:26:29;;;;;;;16.95;8.35;;;14.00;99.90;;;;;;4924019;29;20051;-71
2023/03/13 00:28:55;;;;;;;13.52;8.38;;;14.00;99.90;;;;;;4940946;29;20051;-71
2023/03/13 00:31:30;;;;;;;15.43;8.32;;;14.00;99.90;;;;;;4939760;28;20039;-71
2023/03/13 00:33:58;;;;;;;15.50;9.55;;;14.10;99.90;;;;;;4947078;29;20027;-71
2023/03/13 00:36:26;;;;;;;13.43;8.75;;;14.10;99.90;;;;;;4940851;29;20028;-71
2023/03/13 00:38:52;;;;;;;18.27;9.82;;;14.10;99.90;;;;;;4939109;29;20023;-72
2023/03/13 00:41:19;;;;;;;18.17;8.77;;;14.00;99.90;;;;;;4939037;29;20465;-72
2023/03/13 00:43:46;;;;;;;14.32;9.23;;;14.00;99.90;;;;;;4939029;29;20031;-71
2023/03/13 00:46:13;;;;;;;12.50;9.00;;;14.00;99.90;;;;;;4940370;28;20032;-71
2023/03/13 00:48:39;;;;;;;17.00;8.70;;;13.90;99.90;;;;;;4939790;29;20393;-71
2023/03/13 00:51:06;;;;;;;16.52;9.13;;;13.90;99.90;;;;;;4938690;29;20028;-72
2023/03/13 00:53:32;;;;;;;11.95;8.98;;;13.90;99.90;;;;;;4939379;29;20032;-71
2023/03/13 00:56:06;;;;;;;17.90;9.73;;;13.80;99.90;;;;;;4939853;29;20032;-72
2023/03/13 00:58:36;;;;;;;16.27;9.65;;;13.80;99.90;;;;;;4940434;29;20039;-71
2023/03/13 01:01:22;;;;;;;15.07;8.95;;;13.70;99.90;;;;;;4937946;28;20028;-72
2023/03/13 01:03:55;;;;;;;15.95;9.43;;;13.70;99.90;;;;;;4936575;29;20043;-71
2023/03/13 01:06:23;;;;;;;16.75;8.77;;;13.60;99.90;;;;;;4937686;29;20484;-71
2023/03/13 01:08:50;;;;;;;11.15;8.05;;;13.50;99.90;;;;;;4936644;29;20484;-72
2023/03/13 01:11:18;;;;;;;16.65;8.65;;;13.50;99.90;;;;;;4936035;29;20051;-72
2023/03/13 01:13:44;;;;;;;15.38;8.73;;;13.50;99.90;;;;;;4955365;29;20357;-71
2023/03/13 01:16:12;;;;;;;13.02;8.27;;;13.50;99.90;;;;;;4935021;29;20413;-71
2023/03/13 01:18:40;;;;;;;15.52;8.95;;;13.50;99.90;;;;;;4935289;29;20031;-71
2023/03/13 01:21:06;;;;;;;12.63;8.02;;;13.50;99.90;;;;;;4919040;29;20040;-72
2023/03/13 01:23:32;;;;;;;12.98;8.30;;;13.40;99.90;;;;;;4935572;29;20035;-71
2023/03/13 01:25:58;;;;;;;14.60;7.85;;;13.40;99.90;;;;;;4936489;29;20040;-71
2023/03/13 01:28:24;;;;;;;14.23;8.63;;;13.40;99.90;;;;;;4935307;29;20054;-71
2023/03/13 01:30:51;;;;;;;13.13;8.55;;;13.40;99.90;;;;;;4935799;28;20031;-71
2023/03/13 01:33:17;;;;;;;12.68;8.85;;;13.40;99.90;;;;;;4940752;29;20047;-71
2023/03/13 01:35:43;;;;;;;14.13;7.85;;;13.40;99.90;;;;;;4955214;29;20036;-72
2023/03/13 01:38:09;;;;;;;14.15;8.25;;;13.40;99.90;;;;;;4935108;29;20370;-72
2023/03/13 01:40:46;;;;;;;15.23;7.88;;;13.40;99.90;;;;;;4936125;29;20500;-71
2023/03/13 01:43:20;;;;;;;11.20;7.18;;;13.30;99.90;;;;;;4922812;29;20043;-71
2023/03/13 01:45:55;;;;;;;14.27;7.13;;;13.30;99.90;;;;;;4933000;28;20036;-72
2023/03/13 01:48:24;;;;;;;10.85;7.70;;;13.30;99.90;;;;;;4936750;29;20039;-72
2023/03/13 01:50:53;;;;;;;15.63;8.07;;;13.40;99.90;;;;;;4919900;29;20028;-71
2023/03/13 01:53:19;;;;;;;11.85;7.32;;;13.40;99.90;;;;;;4931884;29;20028;-72
2023/03/13 01:55:45;;;;;;;10.75;7.55;;;13.30;99.90;;;;;;4935676;29;20032;-71
2023/03/13 01:58:11;;;;;;;11.40;7.93;;;13.30;99.90;;;;;;4935770;29;20038;-72
2023/03/13 02:00:37;;;;;;;11.73;7.88;;;13.30;99.90;;;;;;4934791;29;20020;-72
2023/03/13 02:03:07;;;;;;;16.58;7.70;;;13.20;99.90;;;;;;4918480;29;20031;-71
2023/03/13 02:05:33;;;;;;;15.43;8.32;;;13.20;99.90;;;;;;4917337;29;20024;-71
2023/03/13 02:08:30;;;;;;;19.92;8.32;;;13.30;99.90;;;;;;4918692;29;20032;-71
2023/03/13 02:11:18;;;;;;;16.10;8.07;;;13.20;99.90;;;;;;4930100;29;20047;-72
2023/03/13 02:13:44;;;;;;;10.68;8.13;;;13.20;99.90;;;;;;4920304;29;20043;-71
2023/03/13 02:16:10;;;;;;;14.45;9.07;;;13.10;99.90;;;;;;4917810;29;20044;-71
2023/03/13 02:18:37;;;;;;;17.52;9.45;;;13.10;99.90;;;;;;4934697;29;20040;-71
2023/03/13 02:21:13;;;;;;;13.18;8.85;;;13.10;99.90;;;;;;4933405;29;20043;-72
2023/03/13 02:24:05;;;;;;;11.52;8.60;;;13.20;99.90;;;;;;4919464;29;20040;-72
2023/03/13 02:26:31;;;;;;;14.60;9.27;;;13.10;99.90;;;;;;4934232;29;20027;-72
2023/03/13 02:28:57;;;;;;;15.65;10.45;;;13.10;99.90;;;;;;4917623;29;20051;-71
2023/03/13 02:31:23;;;;;;;12.38;9.80;;;13.10;99.90;;;;;;4934229;28;20032;-71
2023/03/13 02:33:49;;;;;;;12.20;9.63;;;13.10;99.90;;;;;;4928812;29;20046;-72
2023/03/13 02:36:15;;;;;;;14.98;9.77;;;13.20;99.90;;;;;;4955276;29;20019;-72
2023/03/13 02:39:02;;;;;;;13.68;9.68;;;13.20;99.90;;;;;;4944256;29;20067;-72
2023/03/13 02:41:28;;;;;;;14.48;9.90;;;13.20;99.90;;;;;;4934053;29;20039;-72
2023/03/13 02:43:54;;;;;;;15.95;10.05;;;13.20;99.90;;;;;;4918273;29;20051;-71
2023/03/13 02:46:20;;;;;;;13.00;9.77;;;13.20;99.90;;;;;;4934458;28;20481;-71
2023/03/13 02:48:48;;;;;;;15.27;9.30;;;13.20;99.90;;;;;;4936052;29;20048;-71
2023/03/13 02:51:35;;;;;;;14.82;10.45;;;13.20;99.90;;;;;;4934642;29;20032;-71
2023/03/13 02:54:04;;;;;;;14.07;8.90;;;13.30;99.90;;;;;;4932561;29;20047;-72
2023/03/13 02:56:32;;;;;;;17.92;7.93;;;13.30;99.90;;;;;;4933614;29;20032;-72
2023/03/13 02:58:58;;;;;;;13.93;7.68;;;13.30;99.90;;;;;;4934400;29;20034;-72
2023/03/13 03:01:24;;;;;;;15.63;7.65;;;13.40;99.90;;;;;;4934008;28;20039;-72
2023/03/13 03:03:50;;;;;;;11.93;7.47;;;13.40;99.90;;;;;;4932827;29;20412;-72
2023/03/13 03:06:16;;;;;;;14.80;8.00;;;13.40;99.90;;;;;;4931989;29;20039;-71
2023/03/13 03:08:43;;;;;;;13.00;7.63;;;13.40;99.90;;;;;;4934294;29;20396;-71
2023/03/13 03:11:09;;;;;;;12.35;7.68;;;13.30;99.90;;;;;;4934839;29;20043;-72
2023/03/13 03:13:35;;;;;;;16.83;7.35;;;13.30;99.90;;;;;;4934762;29;20042;-72
2023/03/13 03:16:09;;;;;;;10.77;7.57;;;13.30;99.90;;;;;;4931682;29;20040;-71
2023/03/13 03:18:35;;;;;;;10.07;7.00;;;13.30;99.90;;;;;;4935418;29;20078;-72
2023/03/13 03:21:05;;;;;;;14.00;8.48;;;13.30;99.90;;;;;;4934114;29;20039;-72
2023/03/13 03:23:32;;;;;;;12.77;8.20;;;13.30;99.90;;;;;;4933522;29;20028;-71
2023/03/13 03:25:59;;;;;;;13.57;7.82;;;13.30;99.90;;;;;;4932595;29;20048;-72
2023/03/13 03:28:25;;;;;;;14.35;7.65;;;13.30;99.90;;;;;;4933506;29;20039;-72
2023/03/13 03:30:53;;;;;;;13.85;7.50;;;13.30;99.90;;;;;;4933590;29;20027;-71
2023/03/13 03:33:22;;;;;;;9.02;7.63;;;13.40;99.90;;;;;;4938889;29;20055;-72
2023/03/13 03:35:48;;;;;;;13.80;7.72;;;13.40;99.90;;;;;;4943461;29;20048;-72
2023/03/13 03:38:15;;;;;;;12.98;7.68;;;13.40;99.90;;;;;;4934661;29;20036;-71
2023/03/13 03:40:41;;;;;;;11.95;7.13;;;13.40;99.90;;;;;;4934144;29;20058;-71
2023/03/13 03:43:07;;;;;;;15.20;7.57;;;13.40;99.90;;;;;;4933915;29;20035;-71
2023/03/13 03:45:33;;;;;;;12.80;7.70;;;13.40;99.90;;;;;;4933049;28;20036;-72
2023/03/13 03:48:00;;;;;;;15.38;7.70;;;13.50;99.90;;;;;;4935294;29;20043;-71
2023/03/13 03:50:26;;;;;;;10.68;7.60;;;13.50;99.90;;;;;;4934144;29;20051;-71
2023/03/13 03:52:52;;;;;;;10.73;8.50;;;13.50;99.90;;;;;;4932736;29;20032;-71
2023/03/13 03:55:18;;;;;;;9.63;8.50;;;13.70;99.90;;;;;;4933973;29;20047;-71
2023/03/13 03:57:45;;;;;;;16.00;7.88;;;13.70;99.90;;;;;;4934125;29;20482;-72
2023/03/13 04:00:14;;;;;;;10.80;7.28;;;13.50;99.90;;;;;;4934420;28;20035;-71
2023/03/13 04:02:40;;;;;;;8.35;7.55;;;13.40;99.90;;;;;;4933699;29;20040;-71
2023/03/13 04:05:06;;;;;;;15.30;7.32;;;13.40;99.90;;;;;;4935073;29;20036;-72
2023/03/13 04:07:32;;;;;;;8.90;6.97;;;13.50;99.90;;;;;;4934389;29;20104;-72
2023/03/13 04:09:59;;;;;;;12.40;7.90;;;13.50;99.90;;;;;;4934773;29;20040;-71
2023/03/13 04:12:25;;;;;;;13.60;7.50;;;13.50;99.90;;;;;;4935375;29;20362;-71
2023/03/13 04:14:51;;;;;;;12.35;7.70;;;13.60;99.90;;;;;;4933186;29;20036;-71
2023/03/13 04:17:17;;;;;;;15.32;7.63;;;13.60;99.90;;;;;;4932244;29;20442;-72
2023/03/13 04:19:43;;;;;;;7.95;7.18;;;13.60;99.90;;;;;;4932650;29;20036;-72
2023/03/13 04:22:09;;;;;;;12.60;7.55;;;13.60;99.90;;;;;;4933629;29;20048;-71
2023/03/13 04:24:35;;;;;;;13.73;7.90;;;13.50;99.90;;;;;;4933864;29;20039;-71
2023/03/13 04:27:02;;;;;;;9.85;7.57;;;13.40;99.90;;;;;;4933809;29;20059;-71
2023/03/13 04:29:28;;;;;;;12.90;7.45;;;13.40;99.90;;;;;;4932853;29;20413;-71
2023/03/13 04:31:54;;;;;;;17.20;7.65;;;13.40;99.90;;;;;;4933288;29;20051;-71
2023/03/13 04:34:20;;;;;;;13.25;7.25;;;13.40;99.90;;;;;;4941172;29;20039;-72
2023/03/13 04:36:47;;;;;;;12.63;7.38;;;13.50;99.90;;;;;;4932831;29;20023;-72
2023/03/13 04:39:13;;;;;;;13.30;7.72;;;13.40;99.90;;;;;;4938585;29;20039;-72
2023/03/13 04:41:39;;;;;;;14.85;8.05;;;13.40;99.90;;;;;;4935776;29;20028;-72
2023/03/13 04:44:05;;;;;;;10.32;7.10;;;13.50;99.90;;;;;;4936702;29;20039;-71
2023/03/13 04:46:31;;;;;;;11.15;8.27;;;13.50;99.90;;;;;;4937670;28;20035;-72
2023/03/13 04:48:57;;;;;;;11.13;8.55;;;13.40;99.90;;;;;;4956248;28;20105;-71
2023/03/13 04:51:23;;;;;;;16.77;9.30;;;13.50;99.90;;;;;;4953014;29;20039;-71
2023/03/13 04:53:49;;;;;;;11.00;9.30;;;13.50;99.90;;;;;;4937490;29;20028;-71
2023/03/13 04:56:25;;;;;;;15.13;10.98;;;13.50;99.90;;;;;;4937758;29;20033;-71
2023/03/13 04:58:51;;;;;;;13.57;10.15;;;13.40;99.90;;;;;;4937804;29;20473;-72
2023/03/13 05:01:17;;;;;;;14.93;9.18;;;13.40;99.90;;;;;;4936363;28;20481;-71
2023/03/13 05:03:43;;;;;;;12.18;9.10;;;13.40;99.90;;;;;;4934159;29;20028;-72
2023/03/13 05:06:10;;;;;;;10.05;9.02;;;13.40;99.90;;;;;;4937833;29;20130;-71
2023/03/13 05:08:36;;;;;;;13.18;8.82;;;13.50;99.90;;;;;;4936281;29;20358;-71
2023/03/13 05:11:02;;;;;;;11.52;8.98;;;13.50;99.90;;;;;;4937757;29;20052;-71
2023/03/13 05:13:29;;;;;;;11.13;8.45;;;13.50;99.90;;;;;;4946452;29;20035;-71
2023/03/13 05:15:55;;;;;;;11.82;8.10;;;13.40;99.90;;;;;;4950754;28;20047;-71
2023/03/13 05:18:21;;;;;;;11.13;8.32;;;13.50;99.90;;;;;;4936381;29;20389;-71
2023/03/13 05:20:47;;;;;;;11.00;8.25;;;13.50;99.90;;;;;;4937534;29;20131;-72
2023/03/13 05:23:13;;;;;;;11.07;7.85;;;13.50;99.90;;;;;;4936159;29;20393;-71
2023/03/13 05:25:39;;;;;;;11.20;8.13;;;13.50;99.90;;;;;;4937390;29;20032;-71
2023/03/13 05:28:06;;;;;;;18.17;9.82;;;13.60;99.90;;;;;;4937146;29;20366;-71
2023/03/13 05:30:32;;;;;;;14.25;8.80;;;13.50;99.90;;;;;;4936927;28;20043;-71
2023/03/13 05:32:58;;;;;;;10.00;9.07;;;13.50;99.90;;;;;;4919635;29;20507;-72
2023/03/13 05:35:24;;;;;;;16.38;10.27;;;13.50;99.90;;;;;;4937127;29;20039;-71
2023/03/13 05:37:50;;;;;;;9.75;8.68;;;13.50;99.90;;;;;;4935289;29;20039;-71
2023/03/13 05:40:16;;;;;;;11.20;10.10;;;13.50;99.90;;;;;;4936969;29;20036;-71
2023/03/13 05:42:43;;;;;;;10.45;9.50;;;13.50;99.90;;;;;;4934398;29;20042;-71
2023/03/13 05:45:09;;;;;;;9.93;8.40;;;13.60;99.90;;;;;;4936377;28;20393;-71
2023/03/13 05:47:37;;;;;;;12.27;8.32;;;13.50;99.90;;;;;;4936935;29;20089;-71
2023/03/13 05:50:04;;;;;;;9.00;7.78;;;13.60;99.90;;;;;;4935589;29;20067;-71
2023/03/13 05:52:30;;;;;;;8.30;7.60;;;13.60;99.90;;;;;;4935940;29;20058;-71
2023/03/13 05:54:56;;;;;;;8.77;7.85;;;13.60;99.90;;;;;;4936943;29;20517;-71
2023/03/13 05:57:23;;;;;;;10.05;8.52;;;13.60;99.90;;;;;;4920194;29;20032;-71
2023/03/13 05:59:49;;;;;;;8.80;7.90;;;13.60;99.90;;;;;;4935734;29;20389;-72
2023/03/13 06:02:15;;;;;;;8.77;7.97;;;13.50;99.90;;;;;;4935555;28;20036;-71
2023/03/13 06:04:41;;;;;;;8.57;7.22;;;13.50;99.90;;;;;;4936873;29;20051;-71
2023/03/13 06:07:07;;;;;;;9.65;8.20;;;13.60;99.90;;;;;;4936411;29;20028;-71
2023/03/13 06:09:33;;;;;;;9.52;8.30;;;13.50;99.90;;;;;;4936446;29;20051;-72
2023/03/13 06:11:59;;;;;;;11.10;8.48;;;13.50;99.90;;;;;;4941213;29;20031;-72
2023/03/13 06:14:25;;;;;;;9.85;8.73;;;13.50;99.90;;;;;;4935713;29;20039;-72
2023/03/13 06:16:53;;;;;;;9.32;8.32;;;13.50;99.90;;;;;;4934257;28;20047;-71
2023/03/13 06:19:20;;;;;;;10.75;8.82;;;13.50;99.90;;;;;;4936953;29;20051;-71
2023/03/13 06:21:46;;;;;;;8.70;7.90;;;13.50;99.90;;;;;;4936014;29;20039;-71
2023/03/13 06:24:12;;;;;;;9.02;8.07;;;13.50;99.90;;;;;;4935358;29;20028;-71
2023/03/13 06:26:38;;;;;;;8.40;7.53;;;13.50;99.90;;;;;;4936389;29;20040;-71
2023/03/13 06:29:04;;;;;;;8.80;7.20;;;13.50;99.90;;;;;;4936242;29;20461;-71
2023/03/13 06:31:30;;;;;;;8.90;7.07;;;13.50;99.90;;;;;;4935784;28;20051;-72
2023/03/13 06:33:56;;;;;;;10.20;8.20;;;13.50;99.90;;;;;;4918726;29;20051;-71
2023/03/13 06:36:23;;;;;;;9.82;7.45;;;13.50;99.90;;;;;;4934769;29;20047;-71
2023/03/13 06:38:49;;;;;;;11.55;7.95;;;13.50;99.90;;;;;;4934910;29;20504;-72
2023/03/13 06:41:15;;;;;;;9.20;7.93;;;13.50;99.90;;;;;;4935460;29;20036;-72
2023/03/13 06:43:41;;;;;;;11.48;7.05;;;13.50;99.90;;;;;;4935879;29;20024;-71
2023/03/13 06:46:08;;;;;;;7.38;6.57;;;13.50;99.90;;;;;;4934649;28;20062;-71
2023/03/13 06:48:34;;;;;;;7.72;6.53;;;13.50;99.90;;;;;;4937473;29;20516;-71
2023/03/13 06:51:00;;;;;;;10.15;6.10;;;13.60;99.90;;;;;;4954434;29;20047;-71
2023/03/13 06:53:26;;;;;;;11.32;6.75;;;13.60;99.90;;;;;;4935478;29;20032;-71
2023/03/13 06:55:52;;;;;;;7.40;5.60;;;13.60;99.90;;;;;;4934859;29;20035;-72
2023/03/13 06:58:18;;;;;;;13.90;6.47;;;13.60;99.90;;;;;;4936648;29;20040;-71
2023/03/13 07:00:45;;;;;;;8.35;5.57;;;13.50;99.90;;;;;;4935258;28;20046;-71
2023/03/13 07:03:11;;;;;;;9.82;6.47;;;13.50;99.90;;;;;;4935037;29;20040;-72
2023/03/13 07:05:37;;;;;;;16.00;6.40;;;13.50;99.90;;;;;;4935371;29;20040;-71
2023/03/13 07:08:03;;;;;;;10.00;6.18;;;13.50;99.90;;;;;;4935897;29;20039;-71
2023/03/13 07:10:30;;;;;;;9.02;5.88;;;13.50;99.90;;;;;;4935437;29;20409;-72
2023/03/13 07:12:56;;;;;;;10.90;6.10;;;13.50;99.90;;;;;;4948208;29;20035;-71
2023/03/13 07:15:22;;;;;;;8.70;6.32;;;13.50;99.90;;;;;;4954234;28;22130;-71
2023/03/13 07:17:49;;;;;;;9.68;6.18;;;13.50;99.90;;;;;;4954630;29;20035;-72
2023/03/13 07:20:15;;;;;;;7.20;5.88;;;13.50;99.90;;;;;;4933042;29;20040;-72
2023/03/13 07:22:41;;;;;;;11.45;5.68;;;13.50;99.90;;;;;;4932452;29;20035;-71
2023/03/13 07:25:08;;;;;;;8.05;5.50;;;13.50;99.90;;;;;;4933887;29;20040;-71
2023/03/13 07:27:34;;;;;;;16.35;5.88;;;13.50;99.90;;;;;;4935449;29;20054;-71
2023/03/13 07:30:00;;;;;;;14.63;8.85;;;13.60;99.90;;;;;;4935354;29;20036;-71
2023/03/13 07:32:31;;;;;;;10.65;6.03;;;13.60;99.90;;;;;;4932625;28;20040;-71
2023/03/13 07:34:57;;;;;;;7.55;6.30;;;13.60;99.90;;;;;;4934399;29;20496;-71
2023/03/13 07:37:23;;;;;;;9.00;6.13;;;13.60;99.90;;;;;;4925973;29;20040;-71
2023/03/13 07:39:49;;;;;;;9.20;6.60;;;13.60;99.90;;;;;;4933421;29;20031;-72
2023/03/13 07:42:15;;;;;;;10.50;7.05;;;13.60;99.90;;;;;;4934169;29;20482;-70
2023/03/13 07:44:41;;;;;;;11.15;6.60;;;13.60;99.90;;;;;;4932449;29;20039;-71
2023/03/13 07:47:07;;;;;;;8.60;6.47;;;13.60;99.90;;;;;;4933613;28;20401;-71
2023/03/13 07:49:38;;;;;;;11.32;6.72;;;13.70;99.90;;;;;;4932767;29;20051;-71
2023/03/13 07:52:04;;;;;;;14.02;6.90;;;13.70;99.90;;;;;;4934721;29;20481;-71
2023/03/13 07:54:30;;;;;;;10.48;6.85;;;13.70;99.90;;;;;;4934471;29;20046;-71
2023/03/13 07:56:56;;;;;;;9.77;7.75;;;13.70;99.90;;;;;;4932942;29;20039;-71
2023/03/13 07:59:22;;;;;;;9.13;8.13;;;13.80;99.90;;;;;;4932988;29;20047;-71
2023/03/13 08:01:48;;;;;;;10.07;8.88;;;13.80;99.90;;;;;;4932649;29;20040;-71
2023/03/13 08:04:14;;;;;;;9.70;8.32;;;13.80;99.90;;;;;;4930471;29;20035;-70
2023/03/13 08:06:40;;;;;;;14.55;8.02;;;13.80;99.90;;;;;;4933660;29;20030;-71
2023/03/13 08:09:07;;;;;;;11.77;7.57;;;13.90;99.90;;;;;;4934481;29;20035;-71
2023/03/13 08:11:33;;;;;;;8.18;7.38;;;13.90;99.90;;;;;;4932548;29;20051;-70
2023/03/13 08:13:59;;;;;;;10.23;5.93;;;14.00;99.90;;;;;;4936987;29;20027;-71
2023/03/13 08:16:26;;;;;;;9.52;6.35;;;14.00;99.90;;;;;;4938265;28;20047;-70
2023/03/13 08:18:54;;;;;;;11.77;6.65;;;14.00;99.90;;;;;;4937796;29;20366;-70
2023/03/13 08:21:22;;;;;;;13.32;6.60;;;14.10;99.90;;;;;;4938494;29;20035;-70
2023/03/13 08:23:51;;;;;;;12.02;7.82;;;14.20;99.90;;;;;;4937080;29;20058;-70
2023/03/13 08:26:18;;;;;;;14.13;10.13;;;14.20;99.90;;;;;;4937587;29;20035;-70
2023/03/13 08:28:45;;;;;;;15.15;9.05;;;14.20;99.90;;;;;;4937598;29;20032;-70
2023/03/13 08:31:12;;;;;;;9.90;7.97;;;14.20;99.90;;;;;;4936373;28;20048;-71
2023/03/13 08:33:38;;;;;;;16.52;10.30;;;14.20;99.90;;;;;;4937350;29;20512;-70
2023/03/13 08:36:22;;;;;;;11.02;7.82;;;14.30;99.90;;;;;;4919951;29;20483;-70
2023/03/13 08:38:48;;;;;;;10.57;8.15;;;14.40;99.90;;;;;;4936338;29;20389;-70
2023/03/13 08:41:18;;;;;;;15.63;9.38;;;14.50;99.90;;;;;;4936085;29;20404;-71
2023/03/13 08:43:45;;;;;;;15.35;8.95;;;14.50;99.90;;;;;;4920392;29;20032;-71
2023/03/13 08:46:11;;;;;;;13.40;9.27;;;14.50;99.90;;;;;;4935632;29;20036;-70
2023/03/13 08:48:37;;;;;;;12.82;9.40;;;14.50;99.90;;;;;;4941384;29;20024;-71
2023/03/13 08:51:08;;;;;;;20.60;10.45;;;14.50;99.90;;;;;;4936032;29;20035;-71
2023/03/13 08:53:35;;;;;;;16.92;9.93;;;14.50;99.90;;;;;;4930535;29;20508;-71
2023/03/13 08:56:01;;;;;;;13.68;8.75;;;14.60;99.90;;;;;;4918688;29;20417;-71
2023/03/13 08:58:27;;;;;;;19.23;9.57;;;14.60;99.90;;;;;;4937826;29;20044;-71
2023/03/13 09:00:54;;;;;;;17.38;7.25;;;14.70;99.90;;;;;;4935431;28;20034;-71
2023/03/13 09:03:20;;;;;;;12.48;7.28;;;14.90;99.90;;;;;;4934564;29;20524;-71
2023/03/13 09:05:46;;;;;;;15.55;7.80;;;15.00;99.90;;;;;;4937082;29;20027;-71
2023/03/13 09:08:13;;;;;;;16.15;9.40;;;15.10;99.90;;;;;;4935875;29;20512;-71
2023/03/13 09:10:39;;;;;;;18.50;9.68;;;15.10;99.90;;;;;;4935432;29;20501;-71
2023/03/13 09:13:06;;;;;;;16.73;9.18;;;15.10;99.90;;;;;;4939475;29;20028;-71
2023/03/13 09:15:32;;;;;;;13.10;8.27;;;15.20;99.90;;;;;;4937034;28;20397;-71
2023/03/13 09:17:58;;;;;;;15.32;8.98;;;15.30;99.90;;;;;;4937592;29;20044;-71
2023/03/13 09:20:24;;;;;;;17.70;10.90;;;15.40;99.90;;;;;;4934785;29;20039;-71
2023/03/13 09:22:50;;;;;;;22.05;14.18;;;15.40;99.90;;;;;;4936262;29;20036;-70
2023/03/13 09:25:16;;;;;;;18.73;11.40;;;15.40;99.90;;;;;;4935582;29;20031;-71
2023/03/13 09:27:42;;;;;;;15.38;11.38;;;15.40;99.90;;;;;;4936130;29;20038;-71
2023/03/13 09:30:09;;;;;;;17.77;15.77;;;15.30;99.90;;;;;;4935153;28;20393;-70
2023/03/13 09:32:35;;;;;;;22.60;20.40;;;15.30;99.90;;;;;;4936866;29;20048;-72
2023/03/13 09:35:01;;;;;;;20.92;19.20;;;15.20;99.90;;;;;;4936196;29;20055;-71
2023/03/13 09:37:27;;;;;;;18.10;16.10;;;15.10;99.90;;;;;;4936320;29;20031;-71
2023/03/13 09:39:53;;;;;;;16.73;13.75;;;15.10;99.90;;;;;;4937145;29;20047;-71
2023/03/13 09:42:21;;;;;;;13.75;9.40;;;15.10;99.90;;;;;;4936021;29;20070;-71
2023/03/13 09:44:55;;;;;;;17.23;15.55;;;15.10;99.90;;;;;;4934877;29;20034;-71
2023/03/13 09:47:46;;;;;;;20.25;14.85;;;15.00;99.90;;;;;;4934589;28;20032;-71
2023/03/13 09:50:29;;;;;;;18.52;16.30;;;15.00;99.90;;;;;;4936906;29;20047;-71
2023/03/13 09:52:58;;;;;;;15.20;12.35;;;15.00;99.90;;;;;;4935248;29;20413;-71
2023/03/13 09:55:32;;;;;;;19.00;13.43;;;15.00;99.90;;;;;;4934372;29;20031;-71
2023/03/13 09:58:15;;;;;;;20.13;15.65;;;15.00;99.90;;;;;;4917400;29;20028;-71
2023/03/13 10:00:45;;;;;;;13.30;10.98;;;15.00;99.90;;;;;;4930045;28;20024;-71
2023/03/13 10:03:18;;;;;;;21.13;10.07;;;15.00;99.90;;;;;;4935794;29;20047;-71
2023/03/13 10:06:12;;;;;;;18.95;10.00;;;14.90;99.90;;;;;;4934286;29;20028;-72
2023/03/13 10:08:38;;;;;;;18.05;10.02;;;14.90;99.90;;;;;;4919767;29;20050;-72
2023/03/13 10:11:14;;;;;;;11.77;8.82;;;14.80;99.90;;;;;;4935707;29;20059;-72
2023/03/13 10:13:54;;;;;;;17.27;11.30;;;14.80;99.90;;;;;;4933294;29;20040;-72
2023/03/13 10:16:26;;;;;;;13.60;10.35;;;14.80;99.90;;;;;;4934793;29;20531;-72
2023/03/13 10:18:54;;;;;;;22.15;9.35;;;14.70;99.90;;;;;;4935963;29;20035;-72
2023/03/13 10:21:21;;;;;;;16.92;10.07;;;14.70;99.90;;;;;;4918731;29;20040;-73
2023/03/13 10:23:52;;;;;;;19.55;12.13;;;14.60;99.90;;;;;;4934288;29;20040;-72
2023/03/13 10:26:26;;;;;;;;;;;14.60;99.90;;;;;;4934710;29;20036;-71
2023/03/13 10:28:53;;;;;;;18.08;9.38;;;14.60;99.90;;;;;;4932462;29;19910;-72
2023/03/13 10:31:32;;;;;;;15.02;9.57;;;14.60;99.90;;;;;;4934492;28;20039;-71
2023/03/13 10:34:09;;;;;;;13.75;9.52;;;14.60;99.90;;;;;;4934712;29;20039;-72
2023/03/13 10:36:43;;;;;;;15.18;7.90;;;14.50;99.90;;;;;;4917271;29;20044;-72
2023/03/13 10:39:22;;;;;;;13.27;9.00;;;14.50;99.90;;;;;;4932747;29;20043;-72
2023/03/13 10:41:49;;;;;;;13.10;9.98;;;14.50;99.90;;;;;;4933690;29;20457;-72
2023/03/13 10:44:20;;;;;;;16.65;8.65;;;14.50;99.90;;;;;;4919140;29;20469;-71
2023/03/13 10:46:47;;;;;;;;;;;14.60;99.90;;;;;;4939122;29;20027;-72
2023/03/13 10:49:20;;;;;;;14.80;8.30;;;14.60;99.90;;;;;;4952708;29;19906;-72
2023/03/13 10:51:49;;;;;;;15.88;9.50;;;14.70;99.90;;;;;;4930031;29;21020;-72
2023/03/13 10:54:23;;;;;;;17.27;8.63;;;14.60;99.90;;;;;;4935849;29;20047;-71
2023/03/13 10:57:06;;;;;;;15.85;7.93;;;14.60;99.90;;;;;;4933214;29;20047;-71
2023/03/13 10:59:32;;;;;;;15.00;7.43;;;14.60;99.90;;;;;;4933647;29;20020;-72
2023/03/13 11:01:59;;;;;;;19.42;8.95;;;14.50;99.90;;;;;;4915854;29;20404;-72
2023/03/13 11:04:32;;;;;;;14.32;7.35;;;14.50;99.90;;;;;;4932344;29;20039;-71
2023/03/13 11:07:20;;;;;;;17.02;9.23;;;14.50;99.90;;;;;;4930002;29;20122;-71
2023/03/13 11:09:59;;;;;;;15.05;9.60;;;14.50;99.90;;;;;;4930300;29;20058;-72
2023/03/13 11:12:26;;;;;;;18.27;10.65;;;14.50;99.90;;;;;;4939705;29;20047;-71
2023/03/13 11:14:58;;;;;;;18.02;11.05;;;14.50;99.90;;;;;;4934822;29;20489;-71
2023/03/13 11:17:36;;;;;;;13.15;10.02;;;14.50;99.90;;;;;;4916915;29;20043;-72
2023/03/13 11:20:22;;;;;;;13.27;9.20;;;14.50;99.90;;;;;;4933655;29;20048;-72
2023/03/13 11:23:06;;;;;;;13.88;9.80;;;14.40;99.90;;;;;;4935426;29;20032;-71
2023/03/13 11:25:48;;;;;;;9.43;7.72;;;14.30;99.90;;;;;;4933322;29;20032;-71
2023/03/13 11:28:36;;;;;;;12.30;9.10;;;14.20;99.90;;;;;;4933179;29;20044;-71
2023/03/13 11:31:14;;;;;;;13.27;8.27;;;14.20;99.90;;;;;;4921130;28;20044;-72
2023/03/13 11:33:49;;;;;;;19.48;8.13;;;14.20;99.90;;;;;;4914187;29;20016;-72
2023/03/13 11:36:27;;;;;;;11.38;7.18;;;14.30;99.90;;;;;;4931084;29;20059;-71
2023/03/13 11:39:02;;;;;;;11.85;7.55;;;14.40;99.90;;;;;;4933447;29;20024;-71
2023/03/13 11:41:44;;;;;;;10.57;7.72;;;14.40;99.90;;;;;;4932708;29;20039;-72
2023/03/13 11:44:13;;;;;;;9.73;8.75;;;14.50;99.90;;;;;;4900540;29;20039;-71
2023/03/13 11:46:42;;;;;;;13.80;10.25;;;14.50;99.90;;;;;;4936626;28;20031;-72
2023/03/13 11:49:18;;;;;;;12.05;9.07;;;14.40;99.90;;;;;;4936020;29;20028;-71
2023/03/13 11:51:57;;;;;;;16.35;10.07;;;14.40;99.90;;;;;;4931832;29;20047;-72
2023/03/13 11:54:23;;;;;;;9.77;8.07;;;14.40;99.90;;;;;;4916129;29;20412;-72
2023/03/13 11:56:55;;;;;;;8.38;7.55;;;14.40;99.90;;;;;;4933470;29;20047;-71
2023/03/13 11:59:46;;;;;;;12.07;6.70;;;14.30;99.90;;;;;;4915682;29;20112;-72
2023/03/13 12:02:27;;;;;;;8.27;6.07;;;14.30;99.90;;;;;;4932262;28;20518;-71
2023/03/13 12:04:54;;;;;;;;;;;14.40;99.90;;;;;;4935941;29;20035;-72
2023/03/13 12:07:31;;;;;;;9.30;5.88;;;14.40;99.90;;;;;;4931052;29;19918;-72
2023/03/13 12:10:08;;;;;;;9.60;5.47;;;14.40;99.90;;;;;;4929803;29;20040;-72
2023/03/13 12:12:55;;;;;;;7.10;5.20;;;14.40;99.90;;;;;;4937997;29;20480;-72
2023/03/13 12:15:35;;;;;;;7.40;5.82;;;14.70;99.90;;;;;;4939954;28;20043;-72
2023/03/13 12:18:19;;;;;;;6.80;5.25;;;14.80;99.90;;;;;;4937061;29;20028;-72
2023/03/13 12:20:52;;;;;;;7.30;6.32;;;14.90;99.90;;;;;;4931774;29;20031;-72
2023/03/13 12:23:20;;;;;;;7.05;5.20;;;15.00;99.90;;;;;;4931178;29;20044;-72
2023/03/13 12:25:46;;;;;;;8.93;7.10;;;15.10;99.90;;;;;;4931640;29;20488;-71
2023/03/13 12:28:29;;;;;;;6.90;6.20;;;15.20;99.90;;;;;;4934248;29;20043;-71
2023/03/13 12:31:00;;;;;;;11.77;9.80;;;15.40;99.90;;;;;;4919135;29;20099;-72
2023/03/13 12:33:26;;;;;;;;;;;15.50;99.90;;;;;;4931669;29;20043;-71
2023/03/13 12:36:13;;;;;;;8.57;7.88;;;15.70;99.90;;;;;;4934373;29;19910;-72
2023/03/13 12:38:48;;;;;;;11.30;8.95;;;15.90;99.90;;;;;;4932932;29;20028;-72
2023/03/13 12:41:25;;;;;;;9.32;8.35;;;16.00;99.90;;;;;;4930880;29;20042;-72
2023/03/13 12:43:52;;;;;;;13.55;10.73;;;16.20;99.90;;;;;;4931769;29;20024;-72
2023/03/13 12:46:18;;;;;;;11.70;9.63;;;16.20;99.90;;;;;;4932360;28;20039;-72
2023/03/13 12:49:03;;;;;;;10.75;9.75;;;16.30;99.90;;;;;;4933524;29;20038;-71